Time;durP1;ratioP1;P1;durP2;ratioP2;P2;SDS_P1;SDS_P2;PMS_P1;PMS_P2;Temp;Humidity;BMP_temperature;BMP_pressure;BME280_temperature;BME280_humidity;BME280_pressure;Samples;Min_cycle;Max_cycle;Signal;HPM_P1;HPM_P2
2022/04/16 00:00:23;;;;;;;10.55;5.50;;;7.20;99.90;;;;;;6157952;23;20032;-84
2022/04/16 00:02:49;;;;;;;9.52;4.70;;;7.10;99.90;;;;;;6158687;23;20025;-85
2022/04/16 00:05:15;;;;;;;6.72;4.25;;;6.90;99.90;;;;;;6158522;23;20032;-84
2022/04/16 00:07:42;;;;;;;10.20;5.05;;;6.90;99.90;;;;;;6184138;23;20537;-84
2022/04/16 00:10:09;;;;;;;9.77;5.72;;;7.40;99.90;;;;;;6158295;23;20095;-84
2022/04/16 00:12:35;;;;;;;8.10;5.38;;;6.70;99.90;;;;;;6158392;23;20376;-83
2022/04/16 00:15:01;;;;;;;8.68;4.70;;;7.80;99.90;;;;;;6184873;23;20053;-84
2022/04/16 00:17:26;;;;;;;8.95;4.80;;;6.60;99.90;;;;;;6158034;23;20032;-84
2022/04/16 00:19:52;;;;;;;8.07;5.15;;;6.90;99.90;;;;;;6184663;23;20025;-84
2022/04/16 00:22:18;;;;;;;9.43;5.03;;;7.10;99.90;;;;;;6184837;23;20382;-84
2022/04/16 00:24:46;;;;;;;8.15;4.88;;;7.40;99.90;;;;;;6184843;23;20344;-84
2022/04/16 00:27:12;;;;;;;9.95;5.15;;;6.90;99.90;;;;;;6184660;23;20457;-84
2022/04/16 00:29:39;;;;;;;9.77;6.35;;;6.70;99.90;;;;;;6184576;23;20056;-83
2022/04/16 00:32:05;;;;;;;12.35;5.80;;;7.20;99.90;;;;;;6182918;23;20056;-84
2022/04/16 00:34:32;;;;;;;10.35;5.30;;;6.10;99.90;;;;;;6158160;23;20092;-84
2022/04/16 00:36:58;;;;;;;10.70;5.80;;;6.30;99.90;;;;;;6184399;23;20025;-84
2022/04/16 00:39:24;;;;;;;8.43;5.40;;;6.50;99.90;;;;;;6184660;23;20017;-84
2022/04/16 00:41:50;;;;;;;9.18;4.88;;;5.50;99.90;;;;;;6184762;23;20021;-84
2022/04/16 00:44:19;;;;;;;9.88;5.35;;;6.90;99.90;;;;;;6184694;23;20024;-84
2022/04/16 00:46:45;;;;;;;8.57;5.22;;;6.80;99.90;;;;;;6184726;23;20025;-84
2022/04/16 00:49:11;;;;;;;10.02;5.18;;;4.70;99.90;;;;;;6184565;23;20052;-84
2022/04/16 00:51:36;;;;;;;9.07;5.57;;;5.90;99.90;;;;;;6184324;23;20325;-83
2022/04/16 00:54:02;;;;;;;9.40;5.47;;;6.20;99.90;;;;;;6157929;23;20025;-84
2022/04/16 00:56:28;;;;;;;11.75;5.93;;;5.80;99.90;;;;;;6184496;23;20032;-84
2022/04/16 00:58:58;;;;;;;12.88;5.93;;;6.20;99.90;;;;;;6184592;23;20017;-84
2022/04/16 01:01:27;;;;;;;12.65;5.97;;;5.80;99.90;;;;;;6132505;23;20025;-83
2022/04/16 01:03:52;;;;;;;10.27;5.47;;;5.90;99.90;;;;;;6158474;23;20099;-83
2022/04/16 01:06:18;;;;;;;8.77;5.30;;;6.70;99.90;;;;;;6157742;23;20024;-84
2022/04/16 01:08:45;;;;;;;8.60;5.10;;;6.00;99.90;;;;;;6157599;23;20025;-84
2022/04/16 01:11:14;;;;;;;9.02;5.07;;;6.80;99.90;;;;;;6184683;23;20440;-84
2022/04/16 01:13:40;;;;;;;11.43;5.82;;;5.90;99.90;;;;;;6184394;23;20053;-84
2022/04/16 01:16:06;;;;;;;8.85;5.30;;;6.10;99.90;;;;;;6184625;23;20017;-83
2022/04/16 01:18:33;;;;;;;8.70;4.90;;;6.10;99.90;;;;;;6184433;23;20394;-83
2022/04/16 01:21:02;;;;;;;8.32;4.90;;;7.40;99.90;;;;;;6186326;23;20017;-85
2022/04/16 01:23:28;;;;;;;10.23;5.00;;;5.00;99.90;;;;;;6186596;23;20028;-84
2022/04/16 01:25:55;;;;;;;8.43;4.57;;;6.30;99.90;;;;;;6184584;23;20021;-84
2022/04/16 01:28:21;;;;;;;8.73;4.30;;;7.10;99.90;;;;;;6186177;23;20024;-85
2022/04/16 01:30:47;;;;;;;8.27;4.90;;;6.60;99.90;;;;;;6185910;23;20087;-83
2022/04/16 01:33:13;;;;;;;11.82;5.25;;;6.70;99.90;;;;;;6186136;23;20067;-84
2022/04/16 01:35:38;;;;;;;13.95;6.65;;;6.80;99.90;;;;;;6186508;23;20053;-84
2022/04/16 01:38:08;;;;;;;13.30;7.18;;;6.80;99.90;;;;;;6185773;23;20048;-84
2022/04/16 01:40:34;;;;;;;10.30;6.20;;;6.80;99.90;;;;;;6186358;23;20021;-84
2022/04/16 01:43:00;;;;;;;10.55;4.97;;;8.10;99.90;;;;;;6185651;23;20032;-85
2022/04/16 01:45:26;;;;;;;11.40;6.95;;;7.50;99.90;;;;;;6184559;23;20025;-84
2022/04/16 01:47:52;;;;;;;14.25;7.22;;;6.90;99.90;;;;;;6186118;23;20104;-84
2022/04/16 01:50:19;;;;;;;9.70;5.60;;;7.80;99.90;;;;;;6186182;23;20143;-84
2022/04/16 01:52:45;;;;;;;10.88;5.88;;;6.90;99.90;;;;;;6159673;23;20071;-84
2022/04/16 01:55:12;;;;;;;11.32;6.85;;;8.10;99.90;;;;;;6185876;23;20028;-82
2022/04/16 01:57:38;;;;;;;13.77;6.47;;;8.00;99.90;;;;;;6184404;23;20029;-83
2022/04/16 02:00:07;;;;;;;11.13;5.60;;;6.40;99.90;;;;;;6185416;23;20451;-85
2022/04/16 02:02:35;;;;;;;9.63;5.55;;;6.90;99.90;;;;;;6184174;23;20474;-83
2022/04/16 02:05:01;;;;;;;9.52;5.82;;;7.50;99.90;;;;;;6159632;23;20360;-83
2022/04/16 02:07:26;;;;;;;10.55;5.63;;;6.90;99.90;;;;;;6185368;23;20017;-84
2022/04/16 02:09:52;;;;;;;9.07;5.40;;;6.90;99.90;;;;;;6159563;23;20092;-84
2022/04/16 02:12:18;;;;;;;11.02;5.88;;;5.50;99.90;;;;;;6185981;23;20097;-84
2022/04/16 02:14:43;;;;;;;9.02;5.10;;;7.90;99.90;;;;;;6185897;23;20027;-83
2022/04/16 02:17:09;;;;;;;10.20;6.25;;;6.90;99.90;;;;;;6186160;23;20075;-83
2022/04/16 02:19:36;;;;;;;11.15;6.60;;;6.90;99.90;;;;;;6185727;23;20017;-83
2022/04/16 02:22:02;;;;;;;11.65;6.30;;;7.10;99.90;;;;;;6185943;23;20032;-84
2022/04/16 02:24:28;;;;;;;16.25;7.57;;;6.90;99.90;;;;;;6159165;23;20059;-84
2022/04/16 02:26:55;;;;;;;11.02;6.75;;;8.00;99.90;;;;;;6185330;23;20344;-84
2022/04/16 02:29:21;;;;;;;10.43;6.18;;;7.70;99.90;;;;;;6159189;23;20321;-84
2022/04/16 02:31:47;;;;;;;13.23;7.93;;;7.70;99.90;;;;;;6185170;23;20139;-83
2022/04/16 02:34:13;;;;;;;12.40;6.47;;;6.20;99.90;;;;;;6185897;23;20047;-83
2022/04/16 02:36:40;;;;;;;11.20;6.82;;;7.00;99.90;;;;;;6185941;23;20088;-84
2022/04/16 02:39:06;;;;;;;10.75;6.25;;;7.90;99.90;;;;;;6185635;23;20455;-84
2022/04/16 02:41:32;;;;;;;8.43;4.85;;;7.00;99.90;;;;;;6158857;23;20028;-83
2022/04/16 02:43:58;;;;;;;9.80;6.07;;;7.90;99.90;;;;;;6159471;23;20021;-83
2022/04/16 02:49:13;;;;;;;13.60;8.10;;;7.10;99.90;;;;;;6185470;23;20028;-83
2022/04/16 02:51:39;;;;;;;18.70;10.27;;;8.10;99.90;;;;;;6185716;23;20032;-84
2022/04/16 02:54:05;;;;;;;14.15;8.35;;;7.70;99.90;;;;;;6185662;23;20017;-83
2022/04/16 02:56:32;;;;;;;13.38;8.82;;;7.30;99.90;;;;;;6158776;23;20100;-84
2022/04/16 02:58:58;;;;;;;20.55;11.77;;;8.40;99.90;;;;;;6134236;23;20024;-84
2022/04/16 03:01:23;;;;;;;17.00;9.07;;;7.40;99.90;;;;;;6158719;23;20348;-84
2022/04/16 03:03:49;;;;;;;16.70;9.68;;;8.60;99.90;;;;;;6158830;23;20355;-84
2022/04/16 03:06:15;;;;;;;15.38;7.85;;;6.80;99.90;;;;;;6185222;23;20013;-84
2022/04/16 03:08:41;;;;;;;15.45;8.68;;;7.50;99.90;;;;;;6184889;23;20048;-83
2022/04/16 03:11:07;;;;;;;15.70;9.60;;;8.30;99.90;;;;;;6184909;23;20017;-84
2022/04/16 03:13:35;;;;;;;19.80;9.88;;;8.60;99.90;;;;;;6184699;23;20099;-83
2022/04/16 03:18:46;;;;;;;22.85;11.93;;;7.60;99.90;;;;;;6185345;23;20028;-84
2022/04/16 03:21:13;;;;;;;23.92;12.23;;;7.80;99.90;;;;;;6185196;23;20344;-83
2022/04/16 03:23:39;;;;;;;21.58;11.75;;;8.00;99.90;;;;;;6185268;23;20025;-82
2022/04/16 03:26:05;;;;;;;22.30;13.13;;;7.70;99.90;;;;;;6185338;23;20021;-81
2022/04/16 03:28:32;;;;;;;18.77;11.57;;;7.90;99.90;;;;;;6158621;23;20031;-82
2022/04/16 03:30:58;;;;;;;23.90;13.18;;;8.10;99.90;;;;;;6184415;23;20021;-82
2022/04/16 03:33:24;;;;;;;22.65;12.82;;;7.60;99.90;;;;;;6183800;23;20452;-83
2022/04/16 03:35:51;;;;;;;19.33;11.80;;;7.70;99.90;;;;;;6157984;23;20056;-82
2022/04/16 03:38:17;;;;;;;28.95;14.73;;;8.50;99.90;;;;;;6184972;23;20021;-82
2022/04/16 03:40:44;;;;;;;32.13;16.95;;;8.70;99.90;;;;;;6185348;23;20346;-83
2022/04/16 03:43:10;;;;;;;26.40;13.68;;;7.50;99.90;;;;;;6184434;23;20021;-82
2022/04/16 03:45:36;;;;;;;32.50;17.02;;;8.50;99.90;;;;;;6184994;23;20020;-82
2022/04/16 03:48:05;;;;;;;29.08;15.20;;;7.90;99.90;;;;;;6184631;23;20451;-82
2022/04/16 03:50:32;;;;;;;25.13;14.32;;;7.40;99.90;;;;;;6183106;23;20029;-83
2022/04/16 03:52:58;;;;;;;26.63;14.07;;;8.20;99.90;;;;;;6158336;23;20060;-82
2022/04/16 04:01:00;;;;;;;26.65;14.85;;;8.30;99.90;;;;;;6184518;23;20039;-84
2022/04/16 04:03:26;;;;;;;26.38;14.23;;;7.40;99.90;;;;;;6184676;23;20387;-84
2022/04/16 04:05:54;;;;;;;30.35;16.73;;;8.00;99.90;;;;;;6184978;23;20076;-84
2022/04/16 04:08:22;;;;;;;33.92;16.23;;;7.30;99.90;;;;;;6158000;23;20105;-83
2022/04/16 04:10:48;;;;;;;31.95;15.90;;;7.90;99.90;;;;;;6158203;23;20055;-83
2022/04/16 04:13:15;;;;;;;30.42;17.33;;;7.70;99.90;;;;;;6184582;23;20394;-83
2022/04/16 04:15:41;;;;;;;27.00;14.75;;;7.50;99.90;;;;;;6184669;23;20013;-84
2022/04/16 04:18:07;;;;;;;31.52;16.40;;;7.20;99.90;;;;;;6184804;23;20028;-84
2022/04/16 04:20:35;;;;;;;31.45;15.52;;;7.20;99.90;;;;;;6184762;23;20368;-84
2022/04/16 04:23:01;;;;;;;27.20;15.30;;;7.40;99.90;;;;;;6158356;23;20080;-84
2022/04/16 04:25:27;;;;;;;28.48;16.48;;;8.10;99.90;;;;;;6158214;23;20025;-84
2022/04/16 04:27:53;;;;;;;24.95;14.43;;;7.80;99.90;;;;;;6184356;23;20028;-84
2022/04/16 04:30:19;;;;;;;27.17;15.25;;;7.20;99.90;;;;;;6184577;23;20017;-84
2022/04/16 04:32:45;;;;;;;25.63;14.52;;;7.00;99.90;;;;;;6157903;23;20053;-83
2022/04/16 04:35:10;;;;;;;27.48;14.52;;;5.90;99.90;;;;;;6184416;23;20329;-84
2022/04/16 04:37:36;;;;;;;23.65;13.35;;;8.10;99.90;;;;;;6184596;23;20021;-84
2022/04/16 04:40:03;;;;;;;23.15;13.60;;;7.00;99.90;;;;;;6157579;23;20028;-84
2022/04/16 04:42:31;;;;;;;23.50;12.20;;;7.00;99.90;;;;;;6183818;23;20363;-85
2022/04/16 04:44:58;;;;;;;23.33;13.10;;;7.40;99.90;;;;;;6184217;23;20020;-83
2022/04/16 04:47:24;;;;;;;23.38;13.43;;;7.00;99.90;;;;;;6184268;23;20021;-84
2022/04/16 04:49:50;;;;;;;25.85;12.90;;;7.00;99.90;;;;;;6184056;23;20032;-83
2022/04/16 04:52:26;;;;;;;22.67;12.45;;;7.00;99.90;;;;;;6184315;23;20021;-83
2022/04/16 04:54:59;;;;;;;23.08;13.63;;;7.00;99.90;;;;;;6158918;23;20029;-83
2022/04/16 04:57:26;;;;;;;17.35;10.15;;;7.00;99.90;;;;;;6184764;23;20096;-83
2022/04/16 04:59:51;;;;;;;17.10;10.13;;;7.00;99.90;;;;;;6186369;23;20509;-83
2022/04/16 05:02:17;;;;;;;20.48;11.05;;;7.40;99.90;;;;;;6159752;23;20049;-83
2022/04/16 05:04:43;;;;;;;20.70;11.90;;;7.10;99.90;;;;;;6159825;23;20403;-83
2022/04/16 05:07:09;;;;;;;21.75;11.57;;;7.80;99.90;;;;;;6186461;23;20345;-83
2022/04/16 05:09:36;;;;;;;18.65;9.98;;;7.10;99.90;;;;;;6186543;23;20017;-83
2022/04/16 05:12:02;;;;;;;17.30;9.75;;;7.70;99.90;;;;;;6186575;23;20028;-83
2022/04/16 05:14:28;;;;;;;17.50;9.27;;;7.20;99.90;;;;;;6184935;23;20063;-82
2022/04/16 05:16:53;;;;;;;15.48;8.52;;;7.20;99.90;;;;;;6186243;23;20028;-83
2022/04/16 05:19:19;;;;;;;15.60;9.18;;;7.40;99.90;;;;;;6160500;23;20355;-83
2022/04/16 05:21:45;;;;;;;14.13;7.85;;;8.10;99.90;;;;;;6159369;23;20029;-84
2022/04/16 05:24:11;;;;;;;20.27;10.27;;;7.20;99.90;;;;;;6186077;23;20028;-82
2022/04/16 05:26:40;;;;;;;16.55;8.93;;;8.30;99.90;;;;;;6186776;23;20147;-83
2022/04/16 05:29:07;;;;;;;16.75;9.98;;;8.20;99.90;;;;;;6186441;23;20109;-84
2022/04/16 05:31:33;;;;;;;17.42;9.35;;;7.20;99.90;;;;;;6186134;23;20447;-83
2022/04/16 05:36:44;;;;;;;20.85;10.30;;;7.20;99.90;;;;;;6186138;23;20025;-84
2022/04/16 05:39:10;;;;;;;21.30;11.43;;;7.20;99.90;;;;;;6186009;23;20052;-83
2022/04/16 05:41:38;;;;;;;20.63;9.85;;;7.30;99.90;;;;;;6186441;23;20032;-83
2022/04/16 05:44:05;;;;;;;18.05;9.93;;;7.20;99.90;;;;;;6185748;23;20021;-83
2022/04/16 05:46:31;;;;;;;17.55;8.82;;;7.20;99.90;;;;;;6159819;23;20032;-83
2022/04/16 05:48:57;;;;;;;14.48;7.43;;;7.20;99.90;;;;;;6185802;23;20028;-83
2022/04/16 05:51:25;;;;;;;15.40;8.23;;;7.40;99.90;;;;;;6186060;23;20013;-83
2022/04/16 05:53:51;;;;;;;14.75;7.60;;;8.00;99.90;;;;;;6160027;23;20467;-84
2022/04/16 05:56:18;;;;;;;16.67;8.88;;;6.80;99.90;;;;;;6158968;23;20025;-84
2022/04/16 05:58:44;;;;;;;17.40;8.75;;;7.10;99.90;;;;;;6159586;23;20023;-83
2022/04/16 06:01:11;;;;;;;14.48;7.75;;;7.30;99.90;;;;;;6185443;23;20104;-83
2022/04/16 06:03:39;;;;;;;15.75;8.52;;;7.30;99.90;;;;;;6159639;23;20108;-84
2022/04/16 06:06:09;;;;;;;17.88;9.40;;;7.40;99.90;;;;;;6185612;23;20431;-83
2022/04/16 06:08:35;;;;;;;20.83;10.50;;;7.50;99.90;;;;;;6185577;23;20352;-84
2022/04/16 06:11:01;;;;;;;19.50;9.95;;;7.90;99.90;;;;;;6159020;23;20025;-84
2022/04/16 06:13:30;;;;;;;16.17;8.82;;;8.30;99.90;;;;;;6186064;23;20024;-83
2022/04/16 06:15:56;;;;;;;16.17;8.77;;;8.20;99.90;;;;;;6185675;23;20021;-83
2022/04/16 06:18:22;;;;;;;18.10;8.55;;;7.90;99.90;;;;;;6185453;23;20530;-83
2022/04/16 06:20:47;;;;;;;14.85;7.68;;;7.90;99.90;;;;;;6185504;23;20021;-84
2022/04/16 06:23:13;;;;;;;16.20;7.95;;;8.70;99.90;;;;;;6159194;23;20091;-84
2022/04/16 06:25:38;;;;;;;20.67;9.30;;;7.30;99.90;;;;;;6134393;23;20020;-84
2022/04/16 06:28:04;;;;;;;17.60;8.88;;;8.70;99.90;;;;;;6185849;23;20057;-84
2022/04/16 06:30:30;;;;;;;16.92;8.93;;;8.20;99.90;;;;;;6183749;23;20017;-84
2022/04/16 06:32:56;;;;;;;15.32;8.13;;;9.20;99.90;;;;;;6159176;23;20336;-84
2022/04/16 06:35:22;;;;;;;10.73;6.28;;;9.30;99.90;;;;;;6185804;23;20025;-83
2022/04/16 06:37:48;;;;;;;13.20;7.20;;;9.10;99.90;;;;;;6159041;23;20079;-84
2022/04/16 06:40:14;;;;;;;19.38;8.52;;;9.50;99.90;;;;;;6158770;23;20431;-84
2022/04/16 06:42:40;;;;;;;12.32;6.45;;;8.80;99.90;;;;;;6185759;23;20448;-86
2022/04/16 06:45:07;;;;;;;12.40;7.00;;;8.90;99.90;;;;;;6183803;23;20029;-84
2022/04/16 06:47:33;;;;;;;14.18;7.53;;;8.70;99.90;;;;;;6185447;23;20021;-82
2022/04/16 06:49:59;;;;;;;13.38;6.80;;;9.70;99.90;;;;;;6185658;23;20348;-83
2022/04/16 06:52:25;;;;;;;16.08;8.85;;;9.60;99.90;;;;;;6185581;23;20013;-83
2022/04/16 06:54:50;;;;;;;11.52;6.88;;;8.70;99.90;;;;;;6185467;23;20079;-82
2022/04/16 06:57:16;;;;;;;13.68;6.75;;;9.50;99.90;;;;;;6185310;23;20055;-83
2022/04/16 06:59:42;;;;;;;12.90;7.30;;;8.90;99.90;;;;;;6158191;23;20021;-82
2022/04/16 07:02:10;;;;;;;11.13;6.15;;;9.00;99.90;;;;;;6185757;23;20044;-83
2022/04/16 07:04:36;;;;;;;11.40;5.38;;;9.90;99.90;;;;;;6185335;23;20017;-82
2022/04/16 07:07:02;;;;;;;10.38;5.80;;;9.30;99.90;;;;;;6184898;23;20359;-83
2022/04/16 07:09:28;;;;;;;10.82;6.13;;;9.20;99.90;;;;;;6185519;23;20092;-83
2022/04/16 07:11:54;;;;;;;11.20;5.38;;;9.50;99.90;;;;;;6158712;23;20020;-82
2022/04/16 07:14:20;;;;;;;12.75;6.47;;;9.30;99.90;;;;;;6159048;23;20388;-83
2022/04/16 07:16:47;;;;;;;10.38;5.22;;;9.90;99.90;;;;;;6184955;23;20028;-83
2022/04/16 07:19:12;;;;;;;10.70;4.93;;;9.50;99.90;;;;;;6185409;23;20021;-82
2022/04/16 07:21:38;;;;;;;11.02;4.93;;;9.50;99.90;;;;;;6185428;23;20017;-82
2022/04/16 07:24:04;;;;;;;11.18;5.63;;;10.10;99.90;;;;;;6158483;23;20124;-82
2022/04/16 07:26:30;;;;;;;10.43;5.03;;;9.60;99.90;;;;;;6185053;23;20020;-82
2022/04/16 07:28:56;;;;;;;10.68;5.78;;;10.00;99.90;;;;;;6184875;23;20100;-82
2022/04/16 07:31:22;;;;;;;9.80;4.97;;;9.60;99.90;;;;;;6158902;23;20105;-82
2022/04/16 07:33:47;;;;;;;10.90;4.55;;;9.90;99.90;;;;;;6185057;23;20048;-82
2022/04/16 07:36:13;;;;;;;10.13;4.50;;;10.10;99.90;;;;;;6184959;23;20021;-82
2022/04/16 07:38:39;;;;;;;7.65;4.25;;;10.20;99.90;;;;;;6185104;23;20013;-83
2022/04/16 07:41:04;;;;;;;8.30;4.50;;;10.00;99.90;;;;;;6185099;23;20391;-82
2022/04/16 07:43:30;;;;;;;7.35;3.63;;;10.20;99.90;;;;;;6185029;23;20021;-82
2022/04/16 07:45:56;;;;;;;10.93;5.18;;;10.50;99.90;;;;;;6158580;23;20388;-83
2022/04/16 07:48:22;;;;;;;8.07;4.65;;;10.30;99.90;;;;;;6158388;23;20032;-83
2022/04/16 07:50:47;;;;;;;8.02;3.78;;;10.20;99.90;;;;;;6185088;23;20294;-84
2022/04/16 07:53:13;;;;;;;6.88;3.28;;;10.10;99.90;;;;;;6184429;23;20017;-82
2022/04/16 07:55:39;;;;;;;6.32;3.45;;;10.10;99.90;;;;;;6183404;23;20021;-81
2022/04/16 07:58:04;;;;;;;8.40;3.97;;;10.40;99.90;;;;;;6184781;23;20009;-82
2022/04/16 08:00:30;;;;;;;7.35;3.20;;;10.40;99.90;;;;;;6184494;23;20062;-83
2022/04/16 08:02:56;;;;;;;8.27;3.55;;;10.40;99.90;;;;;;6184756;23;20096;-82
2022/04/16 08:05:22;;;;;;;6.72;3.65;;;10.50;99.90;;;;;;6158362;23;20020;-83
2022/04/16 08:07:49;;;;;;;6.35;2.83;;;10.80;99.90;;;;;;6183784;23;20029;-82
2022/04/16 08:10:15;;;;;;;6.75;3.25;;;10.50;99.90;;;;;;6184551;23;20519;-82
2022/04/16 08:12:41;;;;;;;8.77;2.80;;;10.60;99.90;;;;;;6158128;23;20060;-82
2022/04/16 08:15:07;;;;;;;7.50;3.10;;;11.10;99.90;;;;;;6184631;23;20013;-82
2022/04/16 08:17:33;;;;;;;6.45;3.50;;;10.60;99.90;;;;;;6184281;23;20025;-83
2022/04/16 08:19:59;;;;;;;6.60;2.88;;;11.30;99.90;;;;;;6183114;23;20095;-82
2022/04/16 08:22:28;;;;;;;4.90;2.80;;;10.90;99.90;;;;;;6184616;23;20025;-81
2022/04/16 08:27:55;;;;;;;6.03;2.90;;;11.10;99.90;;;;;;6152120;23;20025;-86
2022/04/16 08:30:21;;;;;;;5.10;3.10;;;11.10;99.90;;;;;;6151567;23;20545;-81
2022/04/16 08:32:47;;;;;;;4.75;2.38;;;11.10;99.90;;;;;;6152324;23;20456;-83
2022/04/16 08:35:17;;;;;;;5.90;2.33;;;11.30;99.90;;;;;;6151862;23;20022;-84
2022/04/16 08:37:47;;;;;;;4.22;1.98;;;11.80;99.90;;;;;;6152112;23;20028;-89
2022/04/16 08:40:14;;;;;;;8.70;2.42;;;11.60;99.90;;;;;;6151429;23;20029;-85
2022/04/16 08:42:41;;;;;;;3.63;2.17;;;11.50;99.90;;;;;;6127410;23;20084;-85
2022/04/16 08:45:09;;;;;;;5.80;2.20;;;11.70;99.90;;;;;;6152704;23;20021;-86
2022/04/16 08:47:35;;;;;;;3.67;1.10;;;11.80;99.90;;;;;;6152458;23;20026;-85
2022/04/16 08:50:03;;;;;;;1.58;0.90;;;11.90;99.90;;;;;;6152289;23;20026;-85
2022/04/16 08:52:32;;;;;;;3.53;1.10;;;12.10;99.90;;;;;;6127856;23;20042;-86
2022/04/16 08:54:59;;;;;;;3.65;1.38;;;12.20;99.90;;;;;;6152595;23;20029;-86
2022/04/16 08:57:25;;;;;;;2.33;0.90;;;12.20;99.90;;;;;;6152432;23;20033;-85
2022/04/16 08:59:52;;;;;;;2.67;0.98;;;12.20;99.90;;;;;;6152464;23;20021;-84
2022/04/16 09:02:22;;;;;;;3.92;0.98;;;12.20;99.80;;;;;;6174396;23;20087;-85
2022/04/16 09:05:00;;;;;;;2.50;0.98;;;12.20;99.90;;;;;;6185006;23;20343;-86
2022/04/16 09:07:25;;;;;;;3.33;0.90;;;12.30;99.90;;;;;;6158173;23;20025;-84
2022/04/16 09:09:51;;;;;;;2.80;0.85;;;12.50;99.50;;;;;;6185028;23;20099;-86
2022/04/16 09:12:18;;;;;;;2.58;1.30;;;12.80;99.90;;;;;;6185086;23;20020;-85
2022/04/16 09:14:45;;;;;;;2.15;1.15;;;12.60;97.00;;;;;;6184231;23;20432;-85
2022/04/16 09:17:16;;;;;;;1.30;0.80;;;12.60;95.40;;;;;;6184524;23;20387;-85
2022/04/16 09:19:42;;;;;;;1.88;0.80;;;12.60;98.40;;;;;;6184674;23;20021;-84
2022/04/16 09:22:08;;;;;;;2.20;0.98;;;13.20;94.70;;;;;;6184293;23;20470;-84
2022/04/16 09:24:47;;;;;;;2.83;0.70;;;12.70;96.90;;;;;;6184164;23;20024;-82
2022/04/16 09:27:13;;;;;;;1.17;0.60;;;12.70;96.40;;;;;;6183867;23;20339;-82
2022/04/16 09:29:40;;;;;;;1.60;0.73;;;12.90;96.80;;;;;;6184281;23;20440;-84
2022/04/16 09:32:07;;;;;;;1.67;0.80;;;13.40;98.40;;;;;;6182823;23;20020;-86
2022/04/16 09:34:32;;;;;;;1.17;0.68;;;13.20;94.80;;;;;;6184359;23;20068;-84
2022/04/16 09:37:11;;;;;;;1.20;0.70;;;13.20;95.60;;;;;;6184652;23;20029;-85
2022/04/16 09:39:37;;;;;;;1.25;0.60;;;13.30;94.70;;;;;;6157941;23;20031;-84
2022/04/16 09:42:03;;;;;;;1.80;0.50;;;13.30;94.70;;;;;;6186320;23;20045;-85
2022/04/16 09:44:29;;;;;;;1.08;0.55;;;13.40;93.80;;;;;;6186739;23;20019;-86
2022/04/16 09:46:57;;;;;;;1.50;0.60;;;13.50;95.40;;;;;;6159678;23;20024;-86
2022/04/16 09:49:25;;;;;;;1.65;0.70;;;13.50;94.10;;;;;;6159672;23;20025;-85
2022/04/16 09:51:51;;;;;;;0.88;0.50;;;13.80;96.40;;;;;;6186238;23;20021;-85
2022/04/16 09:54:18;;;;;;;0.63;0.40;;;13.90;90.50;;;;;;6159405;23;20024;-89
2022/04/16 09:56:46;;;;;;;2.03;0.70;;;13.90;93.70;;;;;;6186165;23;20017;-88
2022/04/16 09:59:16;;;;;;;1.55;0.60;;;14.10;91.30;;;;;;6186071;23;20013;-85
2022/04/16 10:01:47;;;;;;;1.63;0.90;;;14.00;93.20;;;;;;6184418;23;20036;-87
2022/04/16 10:04:17;;;;;;;1.80;0.70;;;14.00;91.80;;;;;;6186010;23;20025;-90
2022/04/16 10:06:44;;;;;;;1.17;0.55;;;14.20;91.20;;;;;;6185529;23;20462;-86
2022/04/16 10:09:22;;;;;;;0.80;0.50;;;14.30;92.30;;;;;;6186335;23;20025;-88
2022/04/16 10:14:37;;;;;;;2.45;0.90;;;14.80;90.10;;;;;;6184160;23;20021;-87
2022/04/16 10:17:14;;;;;;;1.63;1.00;;;14.40;90.80;;;;;;6185972;23;20128;-87
2022/04/16 10:19:45;;;;;;;4.55;0.90;;;14.50;88.30;;;;;;6186184;23;20021;-88
2022/04/16 10:22:25;;;;;;;0.90;0.70;;;14.50;90.00;;;;;;6185693;23;20087;-84
2022/04/16 10:24:57;;;;;;;1.35;0.60;;;14.60;91.90;;;;;;6159557;23;20067;-89
2022/04/16 10:27:30;;;;;;;1.67;0.90;;;14.70;91.30;;;;;;6185920;23;20316;-83
2022/04/16 10:30:00;;;;;;;0.65;0.50;;;14.70;81.90;;;;;;6185752;23;20021;-85
2022/04/16 10:32:44;;;;;;;1.02;0.50;;;14.90;90.20;;;;;;6185612;23;20025;-86
2022/04/16 10:35:17;;;;;;;2.50;0.77;;;14.90;87.70;;;;;;6185795;23;20502;-85
2022/04/16 10:37:49;;;;;;;0.60;0.50;;;15.00;91.20;;;;;;6159363;23;20019;-86
2022/04/16 10:40:19;;;;;;;0.70;0.50;;;15.20;82.50;;;;;;6185615;23;20019;-87
2022/04/16 10:42:49;;;;;;;2.58;0.68;;;15.80;83.80;;;;;;6184328;23;20020;-84
2022/04/16 10:45:15;;;;;;;0.65;0.47;;;15.30;86.10;;;;;;6185212;23;20017;-86
2022/04/16 10:47:42;;;;;;;1.15;0.50;;;15.40;79.20;;;;;;6185583;23;20052;-84
2022/04/16 10:50:12;;;;;;;0.73;0.38;;;15.60;72.80;;;;;;6152704;23;20486;-85
2022/04/16 10:52:38;;;;;;;1.65;0.50;;;15.30;75.70;;;;;;6186006;23;20063;-85
2022/04/16 10:55:07;;;;;;;1.90;0.57;;;15.50;75.80;;;;;;6183941;23;20021;-86
2022/04/16 10:57:34;;;;;;;1.42;0.50;;;15.60;78.60;;;;;;6185479;23;20021;-86
2022/04/16 11:00:12;;;;;;;0.50;0.40;;;15.50;70.40;;;;;;6185657;23;20076;-84
2022/04/16 11:02:38;;;;;;;0.98;0.32;;;15.60;75.50;;;;;;6186065;23;20325;-86
2022/04/16 11:05:07;;;;;;;3.22;0.60;;;15.70;74.50;;;;;;6185590;23;20095;-85
2022/04/16 11:07:35;;;;;;;0.90;0.50;;;15.80;72.30;;;;;;6159282;23;20415;-85
2022/04/16 11:10:08;;;;;;;1.08;0.40;;;15.80;68.20;;;;;;6159308;23;20009;-86
2022/04/16 11:12:37;;;;;;;1.05;0.50;;;15.70;72.20;;;;;;6185578;23;20017;-85
2022/04/16 11:15:24;;;;;;;1.67;0.43;;;15.70;69.60;;;;;;6159173;23;20025;-85
2022/04/16 11:17:57;;;;;;;0.73;0.40;;;15.70;67.50;;;;;;6159120;23;20547;-84
2022/04/16 11:20:26;;;;;;;2.35;0.50;;;15.70;72.60;;;;;;6185118;23;20028;-85
2022/04/16 11:22:52;;;;;;;0.50;0.20;;;15.60;70.10;;;;;;6185740;23;20372;-84
2022/04/16 11:25:21;;;;;;;0.93;0.30;;;15.80;69.70;;;;;;6185742;23;20067;-85
2022/04/16 11:36:08;;;;;;;0.90;0.35;;;16.30;71.70;;;;;;6183681;23;20021;-85
2022/04/16 11:38:36;;;;;;;1.17;0.40;;;16.30;69.70;;;;;;6158827;23;20025;-86
2022/04/16 11:41:05;;;;;;;1.88;0.40;;;16.30;71.50;;;;;;6185366;23;20096;-85
2022/04/16 11:43:32;;;;;;;1.02;0.30;;;16.40;70.40;;;;;;6185615;23;20435;-85
2022/04/16 11:46:00;;;;;;;0.63;0.30;;;16.20;65.20;;;;;;6184894;23;20436;-84
2022/04/16 11:48:26;;;;;;;1.20;0.40;;;16.30;67.60;;;;;;6185004;23;20835;-85
2022/04/16 11:50:52;;;;;;;0.70;0.32;;;16.20;66.00;;;;;;6185467;23;20017;-86
2022/04/16 11:53:18;;;;;;;0.57;0.30;;;16.30;71.40;;;;;;6208377;23;20061;-85
2022/04/16 11:55:45;;;;;;;1.02;0.30;;;16.50;70.10;;;;;;6185036;23;20021;-85
2022/04/16 11:58:11;;;;;;;0.93;0.30;;;16.60;68.10;;;;;;6185596;23;20025;-86
2022/04/16 12:00:48;;;;;;;2.53;0.30;;;17.20;66.90;;;;;;6158445;23;20079;-86
2022/04/16 12:03:15;;;;;;;0.90;0.40;;;16.50;67.50;;;;;;6185167;23;20025;-86
2022/04/16 12:05:47;;;;;;;0.70;0.40;;;16.50;66.40;;;;;;6185423;23;20021;-86
2022/04/16 12:08:12;;;;;;;0.38;0.20;;;16.60;64.90;;;;;;6184469;23;20142;-86
2022/04/16 12:10:40;;;;;;;0.88;0.30;;;16.70;65.00;;;;;;6184850;23;20361;-87
2022/04/16 12:13:12;;;;;;;2.15;0.30;;;16.90;66.30;;;;;;6185114;23;20025;-86
2022/04/16 12:15:45;;;;;;;1.98;0.50;;;17.10;66.80;;;;;;6185137;23;20017;-87
2022/04/16 12:18:12;;;;;;;1.10;0.32;;;17.10;63.00;;;;;;6185164;23;20017;-85
2022/04/16 12:20:45;;;;;;;0.60;0.32;;;17.00;64.50;;;;;;6184581;23;20057;-89
2022/04/16 12:23:13;;;;;;;0.75;0.40;;;17.00;65.70;;;;;;6184901;23;20013;-84
2022/04/16 12:25:39;;;;;;;0.43;0.30;;;17.10;64.40;;;;;;6158054;23;20025;-86
2022/04/16 12:28:10;;;;;;;0.75;0.50;;;17.30;66.90;;;;;;6184731;23;20337;-84
2022/04/16 12:30:37;;;;;;;0.50;0.40;;;17.20;64.50;;;;;;6184415;23;20017;-83
2022/04/16 12:33:13;;;;;;;0.90;0.43;;;17.20;64.90;;;;;;6185001;23;20032;-83
2022/04/16 12:35:40;;;;;;;1.15;0.52;;;17.10;62.60;;;;;;6184730;23;20039;-84
2022/04/16 12:38:07;;;;;;;0.98;0.30;;;17.10;64.30;;;;;;6184829;23;20023;-83
2022/04/16 12:40:35;;;;;;;1.33;0.20;;;17.10;62.50;;;;;;6184998;23;20029;-84
2022/04/16 12:43:01;;;;;;;0.65;0.30;;;17.10;66.30;;;;;;6184108;23;20024;-83
2022/04/16 12:45:30;;;;;;;1.23;0.40;;;17.10;64.10;;;;;;6158845;23;20024;-83
2022/04/16 12:47:56;;;;;;;1.05;0.35;;;17.20;62.80;;;;;;6184316;23;20025;-82
2022/04/16 12:50:22;;;;;;;1.17;0.30;;;17.30;59.10;;;;;;6184855;23;20071;-85
2022/04/16 12:52:48;;;;;;;0.95;0.30;;;17.50;59.50;;;;;;6184377;23;20025;-86
2022/04/16 12:55:14;;;;;;;1.15;0.25;;;17.50;58.60;;;;;;6184734;23;20017;-87
2022/04/16 12:57:40;;;;;;;0.50;0.25;;;17.40;57.00;;;;;;6184882;23;20347;-84
2022/04/16 13:00:09;;;;;;;0.38;0.20;;;17.40;57.10;;;;;;6184468;23;20013;-84
2022/04/16 13:02:37;;;;;;;1.00;0.30;;;17.40;57.10;;;;;;6184158;23;20032;-84
2022/04/16 13:05:03;;;;;;;0.65;0.20;;;17.60;57.20;;;;;;6183836;23;20756;-84
2022/04/16 13:07:29;;;;;;;0.20;0.20;;;17.60;60.10;;;;;;6157750;23;20047;-84
2022/04/16 13:09:55;;;;;;;0.20;0.20;;;17.70;60.50;;;;;;6184292;23;20455;-84
2022/04/16 13:12:20;;;;;;;0.40;0.30;;;17.80;60.70;;;;;;6184718;23;20043;-84